createdAt,value
2023-04-17T00:01:17.687Z,32.53
2023-04-17T00:03:45.456Z,34.08
2023-04-17T00:06:14.225Z,32.38
2023-04-17T00:08:43.695Z,38.88
2023-04-17T00:11:11.222Z,39.40
2023-04-17T00:13:38.707Z,36.80
2023-04-17T00:16:06.595Z,43.17
2023-04-17T00:18:34.290Z,38.60
2023-04-17T00:21:01.768Z,39.00
2023-04-17T00:23:29.241Z,38.60
2023-04-17T00:25:56.688Z,34.83
2023-04-17T00:28:24.286Z,39.15
2023-04-17T00:30:51.722Z,33.55
2023-04-17T00:33:19.492Z,37.10
2023-04-17T00:35:46.966Z,36.28
2023-04-17T00:38:14.431Z,38.17
2023-04-17T00:40:42.312Z,42.10
2023-04-17T00:43:09.728Z,36.78
2023-04-17T00:45:37.517Z,43.42
2023-04-17T00:48:07.339Z,38.08
2023-04-17T00:50:35.978Z,41.85
2023-04-17T00:53:03.658Z,40.13
2023-04-17T00:55:32.740Z,43.10
2023-04-17T00:58:00.692Z,43.45
2023-04-17T01:00:28.145Z,42.92
2023-04-17T01:02:58.144Z,40.22
2023-04-17T01:05:27.386Z,36.72
2023-04-17T01:07:56.304Z,41.65
2023-04-17T01:10:25.081Z,38.80
2023-04-17T01:13:03.091Z,38.70
2023-04-17T01:15:30.862Z,37.92
2023-04-17T01:17:58.438Z,43.80
2023-04-17T01:20:31.397Z,46.15
2023-04-17T01:23:00.072Z,47.60
2023-04-17T01:25:28.476Z,40.92
2023-04-17T01:27:57.032Z,41.90
2023-04-17T01:30:24.967Z,51.75
2023-04-17T01:32:55.275Z,43.40
2023-04-17T01:35:23.368Z,40.53
2023-04-17T01:37:51.301Z,45.25
2023-04-17T01:40:18.968Z,44.20
2023-04-17T01:42:46.360Z,49.00
2023-04-17T01:45:13.868Z,44.03
2023-04-17T01:47:41.348Z,46.05
2023-04-17T01:50:09.328Z,46.30
2023-04-17T01:52:37.052Z,49.50
2023-04-17T01:55:04.700Z,49.40
2023-04-17T01:57:33.353Z,50.88
2023-04-17T02:00:00.916Z,48.83
2023-04-17T02:02:28.456Z,50.42
2023-04-17T02:04:55.919Z,54.90
2023-04-17T02:07:23.406Z,46.10
2023-04-17T02:09:50.901Z,53.30
2023-04-17T02:12:18.446Z,53.55
2023-04-17T02:14:46.065Z,52.85
2023-04-17T02:17:13.560Z,51.80
2023-04-17T02:19:41.071Z,46.97
2023-04-17T02:22:08.586Z,46.78
2023-04-17T02:24:36.155Z,45.67
2023-04-17T02:27:04.053Z,50.80
2023-04-17T02:29:31.529Z,48.67
2023-04-17T02:31:59.005Z,46.40
2023-04-17T02:34:26.425Z,52.85
2023-04-17T02:36:54.039Z,45.88
2023-04-17T02:39:21.448Z,51.05
2023-04-17T02:41:48.852Z,48.85
2023-04-17T02:44:16.356Z,52.58
2023-04-17T02:46:43.988Z,47.20
2023-04-17T02:49:11.752Z,54.35
2023-04-17T02:51:39.459Z,50.22
2023-04-17T02:54:07.041Z,47.13
2023-04-17T02:56:34.485Z,52.92
2023-04-17T02:59:02.244Z,52.33
2023-04-17T03:01:30.523Z,47.88
2023-04-17T03:03:58.177Z,50.65
2023-04-17T03:06:27.027Z,43.95
2023-04-17T03:08:54.427Z,48.20
2023-04-17T03:11:21.895Z,53.67
2023-04-17T03:13:49.515Z,58.22
2023-04-17T03:16:16.933Z,52.97
2023-04-17T03:18:44.480Z,62.67
2023-04-17T03:21:12.029Z,49.72
2023-04-17T03:23:39.439Z,47.95
2023-04-17T03:26:06.911Z,50.35
2023-04-17T03:28:34.616Z,47.03
2023-04-17T03:31:02.032Z,65.15
2023-04-17T03:33:29.486Z,48.00
2023-04-17T03:35:56.940Z,47.08
2023-04-17T03:38:24.611Z,48.33
2023-04-17T03:40:52.352Z,50.28
2023-04-17T03:43:19.830Z,46.72
2023-04-17T03:45:47.260Z,47.17
2023-04-17T03:48:14.857Z,46.67
2023-04-17T03:50:42.470Z,48.88
2023-04-17T03:53:09.986Z,48.70
2023-04-17T03:55:37.444Z,55.40
2023-04-17T03:58:04.988Z,42.50
2023-04-17T04:00:32.489Z,47.45
2023-04-17T04:03:00.053Z,51.45
2023-04-17T04:05:27.784Z,49.00
2023-04-17T04:07:55.592Z,43.22
2023-04-17T04:10:23.125Z,47.50
2023-04-17T04:12:50.608Z,48.97
2023-04-17T04:15:17.992Z,47.15
2023-04-17T04:17:45.852Z,39.00
2023-04-17T04:20:13.407Z,41.58
2023-04-17T04:22:41.731Z,38.97
2023-04-17T04:25:09.357Z,42.15
2023-04-17T04:27:37.708Z,42.65
2023-04-17T04:30:05.925Z,41.35
2023-04-17T04:32:34.093Z,37.25
2023-04-17T04:35:02.376Z,47.70
2023-04-17T04:37:30.249Z,42.38
2023-04-17T04:40:04.517Z,39.65
2023-04-17T04:42:31.922Z,39.67
2023-04-17T04:44:59.321Z,43.60
2023-04-17T04:47:26.752Z,37.83
2023-04-17T04:49:54.249Z,34.38
2023-04-17T04:52:21.792Z,42.95
2023-04-17T04:54:49.270Z,31.90
2023-04-17T04:57:18.272Z,37.83
2023-04-17T04:59:45.876Z,34.92
2023-04-17T05:02:13.705Z,34.38
2023-04-17T05:04:41.529Z,37.83
2023-04-17T05:07:09.002Z,40.72
2023-04-17T05:09:36.837Z,36.83
2023-04-17T05:12:04.317Z,45.13
2023-04-17T05:14:31.782Z,38.20
2023-04-17T05:16:59.276Z,33.75
2023-04-17T05:19:26.736Z,43.00
2023-04-17T05:21:54.168Z,39.17
2023-04-17T05:24:21.639Z,36.67
2023-04-17T05:26:49.853Z,35.47
2023-04-17T05:29:17.830Z,40.15
2023-04-17T05:31:46.314Z,34.58
2023-04-17T05:34:13.726Z,38.83
2023-04-17T05:36:41.221Z,37.28
2023-04-17T05:39:08.687Z,35.47
2023-04-17T05:41:36.214Z,37.03
2023-04-17T05:44:03.958Z,38.60
2023-04-17T05:46:31.507Z,32.28
2023-04-17T05:48:59.020Z,33.42
2023-04-17T05:51:26.631Z,36.63
2023-04-17T05:53:54.079Z,34.05
2023-04-17T05:56:21.580Z,30.35
2023-04-17T05:58:49.108Z,31.25
2023-04-17T06:01:18.327Z,27.60
2023-04-17T06:03:46.229Z,27.27
2023-04-17T06:06:13.927Z,29.00
2023-04-17T06:08:41.537Z,28.95
2023-04-17T06:11:08.942Z,31.48
2023-04-17T06:13:36.392Z,30.92
2023-04-17T06:16:03.968Z,29.25
2023-04-17T06:18:31.473Z,32.10
2023-04-17T06:20:59.056Z,30.80
2023-04-17T06:23:26.588Z,29.27
2023-04-17T06:25:53.996Z,26.98
2023-04-17T06:28:21.394Z,30.52
2023-04-17T06:30:49.211Z,34.03
2023-04-17T06:33:16.694Z,28.67
2023-04-17T06:35:44.116Z,32.10
2023-04-17T06:38:11.587Z,33.58
2023-04-17T06:40:38.986Z,32.45
2023-04-17T06:43:06.476Z,25.10
2023-04-17T06:45:34.548Z,35.33
2023-04-17T06:48:01.975Z,30.02
2023-04-17T06:50:29.658Z,31.77
2023-04-17T06:52:57.143Z,38.38
2023-04-17T06:55:24.569Z,32.85
2023-04-17T06:57:51.973Z,34.40
2023-04-17T07:00:20.047Z,35.40
2023-04-17T07:02:47.830Z,35.63
2023-04-17T07:05:15.939Z,35.00
2023-04-17T07:07:43.550Z,34.38
2023-04-17T07:10:11.194Z,38.65
2023-04-17T07:12:38.582Z,40.08
2023-04-17T07:15:06.883Z,32.20
2023-04-17T07:17:34.339Z,31.63
2023-04-17T07:20:01.899Z,36.75
2023-04-17T07:22:29.418Z,38.97
2023-04-17T07:24:56.863Z,31.48
2023-04-17T07:27:24.360Z,37.53
2023-04-17T07:29:54.854Z,40.92
2023-04-17T07:32:24.562Z,31.92
2023-04-17T07:34:52.236Z,36.88
2023-04-17T07:37:19.852Z,38.33
2023-04-17T07:39:50.374Z,37.25
2023-04-17T07:42:17.941Z,33.78
2023-04-17T07:44:47.321Z,35.00
2023-04-17T07:47:14.790Z,35.88
2023-04-17T07:49:46.556Z,32.35
2023-04-17T07:52:15.500Z,36.70
2023-04-17T07:54:42.907Z,41.35
2023-04-17T07:57:11.333Z,30.33
2023-04-17T07:59:38.949Z,30.42
2023-04-17T08:02:06.680Z,35.42
2023-04-17T08:04:34.482Z,32.38
2023-04-17T08:07:02.300Z,28.67
2023-04-17T08:09:29.751Z,30.95
2023-04-17T08:11:58.369Z,35.28
2023-04-17T08:14:26.226Z,32.38
2023-04-17T08:16:53.761Z,37.78
2023-04-17T08:19:21.217Z,35.35
2023-04-17T08:21:49.570Z,33.58
2023-04-17T08:24:19.795Z,33.53
2023-04-17T08:26:48.034Z,38.35
2023-04-17T08:29:15.878Z,30.92
2023-04-17T08:31:43.562Z,31.33
2023-04-17T08:34:14.741Z,36.35
2023-04-17T08:36:43.373Z,38.17
2023-04-17T08:39:12.594Z,35.67
2023-04-17T08:41:49.329Z,33.17
2023-04-17T08:44:21.384Z,36.67
2023-04-17T08:46:50.180Z,33.28
2023-04-17T08:49:17.628Z,35.97
2023-04-17T08:51:45.029Z,36.25
2023-04-17T08:54:12.495Z,41.17
2023-04-17T08:56:39.936Z,35.10
2023-04-17T08:59:07.406Z,34.38
2023-04-17T09:01:35.059Z,42.00
2023-04-17T09:04:02.794Z,36.45
2023-04-17T09:06:49.990Z,33.95
2023-04-17T09:09:17.829Z,34.67
2023-04-17T09:11:45.274Z,38.28
2023-04-17T09:14:45.639Z,34.85
2023-04-17T09:17:14.615Z,31.83
2023-04-17T09:20:01.882Z,37.60
2023-04-17T09:22:29.387Z,38.50
2023-04-17T09:24:57.880Z,38.00
2023-04-17T09:27:28.843Z,33.97
2023-04-17T09:30:01.543Z,37.88
2023-04-17T09:32:31.506Z,39.65
2023-04-17T09:35:01.701Z,31.88
2023-04-17T09:37:53.332Z,36.03
2023-04-17T09:40:22.465Z,37.22
2023-04-17T09:43:04.623Z,34.30
2023-04-17T09:45:37.148Z,34.40
2023-04-17T09:48:13.907Z,32.65
2023-04-17T09:50:41.642Z,33.63
2023-04-17T09:53:09.419Z,32.30
2023-04-17T09:55:38.926Z,33.45
2023-04-17T09:58:08.178Z,30.70
2023-04-17T10:00:37.171Z,38.25
2023-04-17T10:03:05.258Z,31.70
2023-04-17T10:05:33.209Z,36.47
2023-04-17T10:08:01.291Z,33.92
2023-04-17T10:10:33.967Z,33.00
2023-04-17T10:13:04.503Z,31.40
2023-04-17T10:15:33.817Z,30.58
2023-04-17T10:18:21.478Z,30.80
2023-04-17T10:20:50.698Z,31.33
2023-04-17T10:23:30.706Z,28.52
2023-04-17T10:26:25.833Z,29.77
2023-04-17T10:28:55.013Z,31.63
2023-04-17T10:31:25.607Z,27.85
2023-04-17T10:33:54.444Z,34.80
2023-04-17T10:36:39.886Z,28.25
2023-04-17T10:39:15.152Z,29.02
2023-04-17T10:42:05.186Z,30.33
2023-04-17T10:44:39.244Z,31.23
2023-04-17T10:47:08.031Z,30.48
2023-04-17T10:49:50.815Z,28.75
2023-04-17T10:52:38.294Z,34.17
2023-04-17T10:55:20.880Z,31.55
2023-04-17T10:58:03.652Z,29.45
2023-04-17T11:00:37.224Z,29.83
2023-04-17T11:05:33.413Z,23.80
2023-04-17T11:08:00.947Z,27.98
2023-04-17T11:10:28.714Z,27.65
2023-04-17T11:12:59.171Z,29.48
2023-04-17T11:15:30.802Z,28.08
2023-04-17T11:17:59.614Z,28.40
2023-04-17T11:20:30.279Z,28.17
2023-04-17T11:23:05.260Z,24.52
2023-04-17T11:25:34.598Z,25.52
2023-04-17T11:28:05.521Z,28.08
2023-04-17T11:30:35.466Z,30.08
2023-04-17T11:33:05.733Z,30.23
2023-04-17T11:35:38.404Z,28.45
2023-04-17T11:38:09.043Z,27.30
2023-04-17T11:40:36.744Z,29.05
2023-04-17T11:43:10.813Z,21.48
2023-04-17T11:45:41.226Z,27.73
2023-04-17T11:48:13.381Z,24.77
2023-04-17T11:50:43.184Z,26.45
2023-04-17T11:53:15.478Z,29.08
2023-04-17T11:55:44.386Z,28.35
2023-04-17T11:58:13.381Z,25.33
2023-04-17T12:00:41.335Z,28.48
2023-04-17T12:03:37.189Z,31.38
2023-04-17T12:06:06.731Z,31.27
2023-04-17T12:08:45.556Z,24.95
2023-04-17T12:11:20.454Z,28.13
2023-04-17T12:13:48.295Z,27.10
2023-04-17T12:16:15.881Z,27.02
2023-04-17T12:18:43.433Z,28.75
2023-04-17T12:21:10.998Z,30.02
2023-04-17T12:23:38.621Z,25.65
2023-04-17T12:26:06.424Z,29.33
2023-04-17T12:28:33.972Z,28.35
2023-04-17T12:31:01.602Z,31.92
2023-04-17T12:33:29.057Z,25.85
2023-04-17T12:35:56.971Z,26.48
2023-04-17T12:38:24.969Z,26.85
2023-04-17T12:40:52.509Z,21.95
2023-04-17T12:43:20.108Z,24.65
2023-04-17T12:45:47.711Z,27.48
2023-04-17T12:48:15.992Z,21.10
2023-04-17T12:50:44.380Z,24.30
2023-04-17T12:53:16.006Z,27.88
2023-04-17T12:55:44.245Z,28.40
2023-04-17T12:58:13.445Z,26.05
2023-04-17T13:00:43.620Z,31.02
2023-04-17T13:03:12.388Z,24.73
2023-04-17T13:05:40.255Z,27.38
2023-04-17T13:08:12.573Z,25.42
2023-04-17T13:10:40.162Z,23.20
2023-04-17T13:13:08.376Z,24.88
2023-04-17T13:15:36.254Z,26.13
2023-04-17T13:18:03.985Z,21.83
2023-04-17T13:20:31.846Z,24.65
2023-04-17T13:22:59.450Z,26.58
2023-04-17T13:25:26.966Z,26.20
2023-04-17T13:27:55.729Z,24.65
2023-04-17T13:30:23.420Z,28.77
2023-04-17T13:32:51.146Z,23.60
2023-04-17T13:35:18.860Z,23.10
2023-04-17T13:37:46.368Z,27.40
2023-04-17T13:40:15.851Z,25.23
2023-04-17T13:42:44.649Z,27.70
2023-04-17T13:45:12.728Z,25.63
2023-04-17T13:47:40.711Z,28.00
2023-04-17T13:50:09.032Z,25.50
2023-04-17T13:52:36.584Z,24.65
2023-04-17T13:55:04.320Z,25.05
2023-04-17T13:57:32.202Z,23.33
2023-04-17T13:59:59.788Z,26.50
2023-04-17T14:02:27.400Z,27.17
2023-04-17T14:04:55.187Z,24.98
2023-04-17T14:07:22.873Z,24.45
2023-04-17T14:09:50.347Z,21.67
2023-04-17T14:12:20.948Z,22.75
2023-04-17T14:14:48.651Z,29.33
2023-04-17T14:17:16.283Z,24.80
2023-04-17T14:19:43.878Z,23.67
2023-04-17T14:22:11.477Z,22.95
2023-04-17T14:24:38.959Z,22.55
2023-04-17T14:27:06.449Z,23.42
2023-04-17T14:29:34.108Z,25.17
2023-04-17T14:32:01.743Z,21.23
2023-04-17T14:34:29.661Z,23.58
2023-04-17T14:36:58.314Z,26.52
2023-04-17T14:39:26.000Z,23.92
2023-04-17T14:41:53.633Z,23.48
2023-04-17T14:44:21.225Z,24.52
2023-04-17T14:46:49.045Z,24.02
2023-04-17T14:49:17.134Z,23.67
2023-04-17T14:51:45.331Z,21.30
2023-04-17T14:54:12.905Z,22.45
2023-04-17T14:56:43.484Z,22.27
2023-04-17T14:59:11.662Z,18.27
2023-04-17T15:01:39.509Z,20.02
2023-04-17T15:04:07.356Z,20.23
2023-04-17T15:06:35.760Z,19.80
2023-04-17T15:09:03.443Z,21.23
2023-04-17T15:11:30.984Z,22.85
2023-04-17T15:13:58.594Z,22.20
2023-04-17T15:16:27.598Z,23.02
2023-04-17T15:18:55.436Z,20.55
2023-04-17T15:21:23.409Z,24.33
2023-04-17T15:23:50.912Z,24.55
2023-04-17T15:26:19.692Z,24.00
2023-04-17T15:28:47.520Z,21.58
2023-04-17T15:31:15.150Z,23.23
2023-04-17T15:33:42.706Z,22.77
2023-04-17T15:36:10.305Z,20.23
2023-04-17T15:38:37.850Z,19.67
2023-04-17T15:41:05.455Z,27.58
2023-04-17T15:43:33.162Z,22.48
2023-04-17T15:46:02.354Z,26.08
2023-04-17T15:48:30.109Z,23.40
2023-04-17T15:50:57.682Z,24.85
2023-04-17T15:53:27.137Z,24.08
2023-04-17T15:55:54.608Z,22.58
2023-04-17T15:58:22.206Z,20.85
2023-04-17T16:00:49.759Z,22.83
2023-04-17T16:03:17.356Z,22.08
2023-04-17T16:05:45.062Z,21.17
2023-04-17T16:08:12.556Z,19.70
2023-04-17T16:10:40.252Z,20.95
2023-04-17T16:13:08.244Z,16.80
2023-04-17T16:15:35.948Z,15.50
2023-04-17T16:18:04.721Z,15.80
2023-04-17T16:20:32.452Z,15.30
2023-04-17T16:22:59.928Z,15.15
2023-04-17T16:25:27.445Z,15.80
2023-04-17T16:27:55.271Z,15.43
2023-04-17T16:30:22.910Z,17.25
2023-04-17T16:32:50.502Z,17.13
2023-04-17T16:35:18.189Z,17.85
2023-04-17T16:37:45.869Z,18.80
2023-04-17T16:40:13.566Z,18.35
2023-04-17T16:42:41.386Z,16.38
2023-04-17T16:45:09.205Z,17.48
2023-04-17T16:47:39.009Z,18.15
2023-04-17T16:50:09.818Z,20.10
2023-04-17T16:52:41.044Z,18.40
2023-04-17T16:55:09.021Z,16.45
2023-04-17T16:57:38.316Z,18.10
2023-04-17T17:00:07.915Z,17.13
2023-04-17T17:02:36.119Z,17.05
2023-04-17T17:05:08.132Z,15.05
2023-04-17T17:07:35.728Z,14.57
2023-04-17T17:10:03.526Z,17.15
2023-04-17T17:12:31.278Z,18.80
2023-04-17T17:14:59.678Z,14.00
2023-04-17T17:17:27.204Z,13.95
2023-04-17T17:19:56.106Z,15.05
2023-04-17T17:22:23.624Z,17.15
2023-04-17T17:24:52.408Z,15.15
2023-04-17T17:27:19.930Z,19.27
2023-04-17T17:29:47.794Z,15.93
2023-04-17T17:32:16.480Z,13.43
2023-04-17T17:34:44.035Z,12.80
2023-04-17T17:37:11.658Z,12.75
2023-04-17T17:39:39.095Z,16.77
2023-04-17T17:42:09.407Z,13.68
2023-04-17T17:44:37.902Z,14.88
2023-04-17T17:47:07.710Z,17.48
2023-04-17T17:49:35.667Z,21.75
2023-04-17T17:52:03.169Z,17.50
2023-04-17T17:54:34.589Z,17.33
2023-04-17T17:57:01.985Z,14.90
2023-04-17T17:59:29.591Z,14.30
2023-04-17T18:01:57.471Z,14.02
2023-04-17T18:04:25.226Z,19.73
2023-04-17T18:06:52.847Z,17.45
2023-04-17T18:09:20.671Z,14.23
2023-04-17T18:11:48.489Z,18.83
2023-04-17T18:14:16.204Z,14.95
2023-04-17T18:16:43.699Z,14.45
2023-04-17T18:19:11.199Z,16.27
2023-04-17T18:21:38.895Z,17.27
2023-04-17T18:24:06.855Z,16.98
2023-04-17T18:26:34.346Z,15.55
2023-04-17T18:29:01.982Z,18.92
2023-04-17T18:31:29.568Z,18.88
2023-04-17T18:33:57.014Z,19.23
2023-04-17T18:36:24.521Z,20.05
2023-04-17T18:38:52.098Z,21.92
2023-04-17T18:41:20.416Z,17.98
2023-04-17T18:43:47.903Z,19.10
2023-04-17T18:46:15.300Z,20.23
2023-04-17T18:48:42.724Z,14.88
2023-04-17T18:51:17.682Z,16.60
2023-04-17T18:53:45.109Z,15.15
2023-04-17T18:56:14.227Z,21.10
2023-04-17T18:58:43.245Z,18.15
2023-04-17T19:01:11.675Z,16.38
2023-04-17T19:03:39.826Z,19.63
2023-04-17T19:06:07.573Z,16.25
2023-04-17T19:08:36.390Z,14.75
2023-04-17T19:11:04.983Z,14.68
2023-04-17T19:13:33.059Z,16.23
2023-04-17T19:16:01.094Z,17.25
2023-04-17T19:18:29.714Z,16.00
2023-04-17T19:20:57.438Z,16.77
2023-04-17T19:23:25.494Z,17.02
2023-04-17T19:25:56.623Z,21.33
2023-04-17T19:28:25.225Z,17.48
2023-04-17T19:30:52.864Z,15.30
2023-04-17T19:33:20.584Z,22.58
2023-04-17T19:35:48.109Z,15.63
2023-04-17T19:38:17.240Z,18.98
2023-04-17T19:41:15.473Z,16.58
2023-04-17T19:43:47.014Z,16.70
2023-04-17T19:46:14.916Z,15.07
2023-04-17T19:48:44.633Z,17.83
2023-04-17T19:51:13.172Z,15.85
2023-04-17T19:53:42.176Z,13.43
2023-04-17T19:56:10.907Z,14.23
2023-04-17T19:58:38.957Z,16.20
2023-04-17T20:01:06.491Z,17.38
2023-04-17T20:03:35.718Z,14.55
2023-04-17T20:06:03.644Z,16.52
2023-04-17T20:08:31.186Z,14.68
2023-04-17T20:10:58.554Z,14.57
2023-04-17T20:13:26.442Z,18.10
2023-04-17T20:15:54.044Z,17.55
2023-04-17T20:18:21.626Z,15.02
2023-04-17T20:20:49.196Z,16.75
2023-04-17T20:23:16.750Z,18.92
2023-04-17T20:25:44.157Z,17.98
2023-04-17T20:28:11.622Z,18.85
2023-04-17T20:30:39.082Z,18.00
2023-04-17T20:33:06.582Z,19.00
2023-04-17T20:35:34.129Z,18.80
2023-04-17T20:38:01.989Z,16.17
2023-04-17T20:40:29.794Z,17.20
2023-04-17T20:42:57.529Z,22.92
2023-04-17T20:45:24.997Z,17.08
2023-04-17T20:47:56.874Z,16.55
2023-04-17T20:50:25.651Z,19.20
2023-04-17T20:52:53.060Z,23.65
2023-04-17T20:55:21.004Z,17.30
2023-04-17T20:57:48.526Z,19.98
2023-04-17T21:00:16.534Z,15.98
2023-04-17T21:02:45.268Z,20.25
2023-04-17T21:05:12.731Z,21.48
2023-04-17T21:07:40.188Z,18.48
2023-04-17T21:10:08.104Z,20.05
2023-04-17T21:12:35.926Z,20.23
2023-04-17T21:15:03.446Z,17.25
2023-04-17T21:17:31.050Z,24.58
2023-04-17T21:19:58.673Z,24.38
2023-04-17T21:22:26.076Z,20.08
2023-04-17T21:24:53.461Z,23.80
2023-04-17T21:27:21.224Z,24.92
2023-04-17T21:29:48.912Z,19.20
2023-04-17T21:32:16.342Z,20.30
2023-04-17T21:34:44.336Z,24.77
2023-04-17T21:37:12.020Z,24.15
2023-04-17T21:39:39.478Z,19.33
2023-04-17T21:42:06.857Z,21.52
2023-04-17T21:44:34.278Z,23.75
2023-04-17T21:47:01.714Z,23.80
2023-04-17T21:49:29.152Z,21.05
2023-04-17T21:51:57.298Z,22.38
2023-04-17T21:54:27.053Z,22.25
2023-04-17T21:56:54.630Z,22.33
2023-04-17T21:59:22.209Z,23.13
2023-04-17T22:01:49.718Z,25.77
2023-04-17T22:04:17.189Z,23.45
2023-04-17T22:06:44.736Z,23.88
2023-04-17T22:09:12.409Z,22.60
2023-04-17T22:11:39.910Z,19.92
2023-04-17T22:14:07.475Z,22.73
2023-04-17T22:16:35.254Z,21.10
2023-04-17T22:19:02.788Z,21.48
2023-04-17T22:21:30.442Z,28.70
2023-04-17T22:23:57.884Z,24.55
2023-04-17T22:26:27.012Z,28.70
2023-04-17T22:28:54.657Z,24.88
2023-04-17T22:31:22.106Z,24.13
2023-04-17T22:33:49.538Z,22.80
2023-04-17T22:36:16.984Z,26.95
2023-04-17T22:38:44.370Z,26.55
2023-04-17T22:41:12.233Z,24.83
2023-04-17T22:43:39.930Z,25.80
2023-04-17T22:46:07.379Z,21.75
2023-04-17T22:48:35.171Z,26.88
2023-04-17T22:51:02.633Z,23.45
2023-04-17T22:53:30.117Z,20.42
2023-04-17T22:56:05.255Z,23.50
2023-04-17T22:58:34.144Z,25.27
2023-04-17T23:01:01.753Z,26.00
2023-04-17T23:03:30.159Z,24.55
2023-04-17T23:05:57.816Z,22.42
2023-04-17T23:08:25.479Z,20.23
2023-04-17T23:11:03.557Z,24.38
2023-04-17T23:13:31.911Z,20.95
2023-04-17T23:15:59.479Z,24.83
2023-04-17T23:18:27.227Z,25.88
2023-04-17T23:20:55.028Z,24.77
2023-04-17T23:23:22.501Z,23.27
2023-04-17T23:25:49.978Z,26.35
2023-04-17T23:28:17.492Z,26.50
2023-04-17T23:30:45.008Z,24.65
2023-04-17T23:33:12.609Z,23.35
2023-04-17T23:35:40.204Z,23.05
2023-04-17T23:38:07.699Z,22.40
2023-04-17T23:40:38.793Z,24.85
2023-04-17T23:43:07.966Z,26.15
2023-04-17T23:45:35.512Z,28.45
2023-04-17T23:48:03.072Z,26.38
2023-04-17T23:50:30.730Z,31.60
2023-04-17T23:52:58.318Z,25.67
2023-04-17T23:55:27.183Z,25.80
2023-04-17T23:57:56.283Z,28.15
